Time;durP1;ratioP1;P1;durP2;ratioP2;P2;SDS_P1;SDS_P2;PMS_P1;PMS_P2;Temp;Humidity;BMP_temperature;BMP_pressure;BME280_temperature;BME280_humidity;BME280_pressure;Samples;Min_cycle;Max_cycle;Signal;HPM_P1;HPM_P2
2021/09/18 00:02:06;;;;;;;;;10.00;10.00;;;;;;;;5061168;28;8838;-77
2021/09/18 00:04:35;;;;;;;;;9.25;8.75;;;;;;;;5064128;28;8837;-79
2021/09/18 00:07:02;;;;;;;;;12.00;12.00;;;;;;;;5062269;28;8981;-76
2021/09/18 00:09:30;;;;;;;;;11.50;11.50;;;;;;;;5063570;28;8941;-79
2021/09/18 00:11:57;;;;;;;;;10.75;10.75;;;;;;;;5063176;28;8858;-82
2021/09/18 00:14:24;;;;;;;;;11.00;11.00;;;;;;;;5059556;28;8919;-81
2021/09/18 00:16:52;;;;;;;;;12.25;12.00;;;;;;;;5062970;28;8852;-79
2021/09/18 00:19:20;;;;;;;;;12.50;12.25;;;;;;;;5055486;28;9001;-77
2021/09/18 00:21:48;;;;;;;;;13.25;13.25;;;;;;;;5062596;28;8854;-82
2021/09/18 00:24:16;;;;;;;;;12.00;10.00;;;;;;;;5062389;28;8870;-76
2021/09/18 00:26:43;;;;;;;;;13.50;13.50;;;;;;;;5063277;28;8940;-78
2021/09/18 00:29:10;;;;;;;;;12.50;12.50;;;;;;;;5062853;28;8862;-81
2021/09/18 00:31:37;;;;;;;;;18.25;14.00;;;;;;;;5061254;28;8802;-81
2021/09/18 00:34:05;;;;;;;;;15.00;13.75;;;;;;;;5063098;28;8842;-83
2021/09/18 00:36:32;;;;;;;;;17.25;13.75;;;;;;;;5060642;28;9600;-77
2021/09/18 00:39:01;;;;;;;;;13.50;10.00;;;;;;;;5063772;28;8850;-80
2021/09/18 00:41:28;;;;;;;;;14.00;11.50;;;;;;;;5061939;28;8884;-79
2021/09/18 00:43:57;;;;;;;;;14.50;13.75;;;;;;;;5063650;28;10069;-76
2021/09/18 00:46:25;;;;;;;;;19.00;17.25;;;;;;;;5063939;28;8865;-77
2021/09/18 00:48:53;;;;;;;;;11.00;11.00;;;;;;;;5062381;28;8872;-80
2021/09/18 00:51:20;;;;;;;;;18.50;18.00;;;;;;;;5063246;28;8861;-77
2021/09/18 00:53:50;;;;;;;;;16.75;16.75;;;;;;;;5062075;28;9632;-79
2021/09/18 00:56:19;;;;;;;;;17.00;17.00;;;;;;;;5062965;28;9628;-77
2021/09/18 00:58:47;;;;;;;;;18.00;16.25;;;;;;;;5061995;28;9037;-76
2021/09/18 01:01:14;;;;;;;;;18.75;16.50;;;;;;;;5042990;28;8799;-76
2021/09/18 01:03:44;;;;;;;;;15.50;15.50;;;;;;;;5060677;28;9700;-77
2021/09/18 01:06:12;;;;;;;;;20.67;20.67;;;;;;;;5061134;28;8850;-74
2021/09/18 01:08:40;;;;;;;;;18.67;18.67;;;;;;;;5062628;28;9019;-78
2021/09/18 01:11:07;;;;;;;;;18.67;18.67;;;;;;;;5060904;28;9887;-76
2021/09/18 01:13:36;;;;;;;;;20.67;20.67;;;;;;;;5062756;28;8944;-76
2021/09/18 01:16:04;;;;;;;;;18.00;13.67;;;;;;;;5060748;28;10157;-76
2021/09/18 01:18:31;;;;;;;;;16.00;16.00;;;;;;;;5062718;28;9021;-76
2021/09/18 01:20:58;;;;;;;;;20.33;20.33;;;;;;;;5061124;28;9002;-78
2021/09/18 01:23:27;;;;;;;;;18.00;18.00;;;;;;;;5063216;28;9250;-79
2021/09/18 01:25:54;;;;;;;;;17.33;16.33;;;;;;;;5062319;28;9021;-75
2021/09/18 01:28:24;;;;;;;;;17.00;17.00;;;;;;;;5061465;28;9226;-82
2021/09/18 01:30:52;;;;;;;;;17.33;16.00;;;;;;;;5065144;28;9151;-77
2021/09/18 01:33:19;;;;;;;;;16.67;13.67;;;;;;;;5065150;28;9206;-82
2021/09/18 01:35:46;;;;;;;;;22.67;19.00;;;;;;;;5066901;28;9199;-79
2021/09/18 01:38:14;;;;;;;;;17.33;17.33;;;;;;;;5065892;28;9184;-76
2021/09/18 01:40:45;;;;;;;;;16.67;15.00;;;;;;;;5066619;28;9232;-80
2021/09/18 01:43:13;;;;;;;;;20.33;17.00;;;;;;;;5066315;28;9020;-74
2021/09/18 01:45:41;;;;;;;;;16.67;16.67;;;;;;;;5066108;28;9269;-76
2021/09/18 01:48:10;;;;;;;;;18.00;18.00;;;;;;;;5066657;28;9129;-81
2021/09/18 01:50:41;;;;;;;;;14.67;14.67;;;;;;;;5065529;28;9269;-75
2021/09/18 01:53:09;;;;;;;;;19.00;18.00;;;;;;;;5066463;28;9080;-77
2021/09/18 01:55:37;;;;;;;;;14.33;14.33;;;;;;;;5064620;28;9258;-74
2021/09/18 01:58:06;;;;;;;;;21.67;21.67;;;;;;;;5066798;28;9183;-76
2021/09/18 02:00:38;;;;;;;;;18.00;16.33;;;;;;;;5064253;28;9142;-75
2021/09/18 02:03:05;;;;;;;;;19.00;18.00;;;;;;;;5065707;28;9261;-75
2021/09/18 02:05:33;;;;;;;;;18.67;18.67;;;;;;;;5065849;28;9172;-79
2021/09/18 02:08:00;;;;;;;;;16.33;16.33;;;;;;;;5065918;28;9119;-78
2021/09/18 02:10:29;;;;;;;;;16.00;16.00;;;;;;;;5066329;28;9112;-77
2021/09/18 02:12:58;;;;;;;;;17.00;16.00;;;;;;;;5064096;28;9386;-78
2021/09/18 02:15:27;;;;;;;;;17.67;17.67;;;;;;;;5063391;28;9260;-77
2021/09/18 02:17:54;;;;;;;;;17.33;17.33;;;;;;;;5065787;28;9300;-74
2021/09/18 02:20:25;;;;;;;;;16.00;16.00;;;;;;;;5065931;28;9462;-85
2021/09/18 02:22:52;;;;;;;;;18.33;18.33;;;;;;;;5064927;28;9319;-77
2021/09/18 02:25:19;;;;;;;;;20.33;18.00;;;;;;;;5045160;28;9290;-74
2021/09/18 02:27:48;;;;;;;;;17.67;17.67;;;;;;;;5062469;28;9242;-76
2021/09/18 02:30:17;;;;;;;;;16.00;16.00;;;;;;;;5063235;28;9326;-74
2021/09/18 02:32:46;;;;;;;;;18.67;17.00;;;;;;;;5064872;28;9262;-74
2021/09/18 02:35:16;;;;;;;;;17.67;17.67;;;;;;;;5046832;28;9340;-83
2021/09/18 02:37:44;;;;;;;;;16.00;14.00;;;;;;;;5047615;28;9360;-75
2021/09/18 02:40:14;;;;;;;;;18.33;17.00;;;;;;;;5064795;28;9244;-81
2021/09/18 02:42:43;;;;;;;;;16.25;16.25;;;;;;;;5064063;28;9397;-76
2021/09/18 02:45:11;;;;;;;;;18.75;15.25;;;;;;;;5065867;28;9527;-76
2021/09/18 02:47:38;;;;;;;;;16.67;15.67;;;;;;;;5063437;28;9406;-75
2021/09/18 02:50:10;;;;;;;;;16.33;13.67;;;;;;;;5065594;28;9417;-75
2021/09/18 02:52:37;;;;;;;;;17.67;16.00;;;;;;;;5063914;28;9295;-77
2021/09/18 02:55:05;;;;;;;;;16.33;15.00;;;;;;;;5062683;28;9440;-78
2021/09/18 02:57:33;;;;;;;;;15.00;13.00;;;;;;;;5065368;28;9900;-80
2021/09/18 03:00:00;;;;;;;;;19.33;14.33;;;;;;;;5063693;28;9316;-85
2021/09/18 03:02:28;;;;;;;;;10.00;10.00;;;;;;;;5063893;28;9471;-77
2021/09/18 03:04:56;;;;;;;;;15.00;15.00;;;;;;;;5063345;28;9629;-83
2021/09/18 03:07:25;;;;;;;;;15.67;15.00;;;;;;;;5064625;28;9549;-78
2021/09/18 03:09:52;;;;;;;;;13.67;13.33;;;;;;;;5063147;28;9420;-85
2021/09/18 03:12:19;;;;;;;;;15.00;12.00;;;;;;;;5064660;28;9455;-75
2021/09/18 03:14:47;;;;;;;;;16.00;15.00;;;;;;;;5064794;28;9506;-79
2021/09/18 03:17:14;;;;;;;;;13.00;13.00;;;;;;;;5033874;28;9338;-79
2021/09/18 03:19:42;;;;;;;;;15.00;15.00;;;;;;;;5059581;28;9339;-85
2021/09/18 03:22:09;;;;;;;;;15.75;15.00;;;;;;;;5042652;28;9345;-81
2021/09/18 03:24:38;;;;;;;;;14.67;14.67;;;;;;;;5065139;28;9672;-80
2021/09/18 03:27:05;;;;;;;;;16.67;15.00;;;;;;;;5062806;28;10214;-81
2021/09/18 03:29:33;;;;;;;;;17.00;17.00;;;;;;;;5064158;28;9424;-75
2021/09/18 03:32:00;;;;;;;;;18.00;18.00;;;;;;;;5062871;28;9304;-78
2021/09/18 03:34:28;;;;;;;;;15.00;14.33;;;;;;;;5063379;28;9369;-74
2021/09/18 03:36:55;;;;;;;;;15.00;15.00;;;;;;;;5064949;28;9293;-78
2021/09/18 03:39:22;;;;;;;;;16.33;16.33;;;;;;;;5062028;28;9328;-75
2021/09/18 03:41:51;;;;;;;;;12.67;12.67;;;;;;;;5063662;28;9373;-81
2021/09/18 03:44:18;;;;;;;;;14.33;14.33;;;;;;;;5063035;28;9355;-78
2021/09/18 03:46:46;;;;;;;;;16.33;16.33;;;;;;;;5064937;28;10157;-83
2021/09/18 03:49:13;;;;;;;;;18.00;18.00;;;;;;;;5063537;28;9735;-80
2021/09/18 03:51:40;;;;;;;;;15.67;14.00;;;;;;;;5045252;28;9426;-77
2021/09/18 03:54:07;;;;;;;;;16.00;16.00;;;;;;;;5063637;28;9428;-84
2021/09/18 03:56:35;;;;;;;;;15.33;14.33;;;;;;;;5062534;28;9485;-81
2021/09/18 03:59:03;;;;;;;;;14.33;14.33;;;;;;;;5046603;28;9396;-82
2021/09/18 04:01:31;;;;;;;;;15.67;14.33;;;;;;;;5060508;28;9287;-80
2021/09/18 04:03:59;;;;;;;;;15.67;15.67;;;;;;;;5063919;28;9413;-80
2021/09/18 04:06:27;;;;;;;;;14.33;14.33;;;;;;;;5062733;28;9420;-82
2021/09/18 04:08:54;;;;;;;;;16.33;16.33;;;;;;;;5063793;28;9384;-81
2021/09/18 04:11:21;;;;;;;;;17.33;14.67;;;;;;;;5045305;28;9566;-75
2021/09/18 04:13:51;;;;;;;;;14.33;14.33;;;;;;;;5060798;28;9381;-79
2021/09/18 04:16:21;;;;;;;;;16.00;14.33;;;;;;;;5062852;28;9419;-82
2021/09/18 04:18:48;;;;;;;;;18.00;15.00;;;;;;;;5062202;28;9386;-82
2021/09/18 04:21:15;;;;;;;;;18.00;16.75;;;;;;;;5057368;28;9364;-84
2021/09/18 04:23:43;;;;;;;;;13.33;13.33;;;;;;;;5062645;28;9470;-79
2021/09/18 04:26:11;;;;;;;;;13.00;13.00;;;;;;;;5063129;28;9535;-76
2021/09/18 04:28:38;;;;;;;;;14.67;14.33;;;;;;;;5062781;28;9487;-77
2021/09/18 04:31:05;;;;;;;;;17.75;14.25;;;;;;;;5039725;28;9394;-77
2021/09/18 04:33:35;;;;;;;;;13.50;13.50;;;;;;;;5063259;28;9592;-80
2021/09/18 04:36:03;;;;;;;;;15.75;14.50;;;;;;;;5061727;28;10325;-78
2021/09/18 04:38:30;;;;;;;;;17.67;16.00;;;;;;;;5064123;28;9481;-77
2021/09/18 04:40:58;;;;;;;;;12.00;10.67;;;;;;;;5060767;28;9408;-76
2021/09/18 04:43:25;;;;;;;;;14.75;14.75;;;;;;;;5063001;28;9494;-76
2021/09/18 04:45:52;;;;;;;;;14.75;14.75;;;;;;;;5036079;28;9389;-86
2021/09/18 04:48:20;;;;;;;;;18.75;17.75;;;;;;;;5062949;28;9549;-77
2021/09/18 04:50:49;;;;;;;;;14.25;12.75;;;;;;;;5062905;28;9616;-80
2021/09/18 04:53:16;;;;;;;;;14.25;13.50;;;;;;;;5059981;28;9603;-78
2021/09/18 04:55:44;;;;;;;;;15.75;15.75;;;;;;;;5062919;28;9438;-75
2021/09/18 04:58:12;;;;;;;;;16.75;14.25;;;;;;;;5061550;28;9533;-75
2021/09/18 05:00:40;;;;;;;;;12.33;12.33;;;;;;;;5059274;28;9344;-76
2021/09/18 05:03:08;;;;;;;;;14.00;12.75;;;;;;;;5062562;28;9407;-74
2021/09/18 05:05:35;;;;;;;;;14.00;14.00;;;;;;;;5065532;28;9377;-76
2021/09/18 05:08:05;;;;;;;;;10.50;10.00;;;;;;;;5065685;28;10406;-75
2021/09/18 05:10:33;;;;;;;;;18.25;15.50;;;;;;;;5045714;28;9573;-75
2021/09/18 05:13:00;;;;;;;;;16.00;16.00;;;;;;;;5064420;28;9475;-75
2021/09/18 05:15:27;;;;;;;;;14.25;14.25;;;;;;;;5063858;28;9558;-79
2021/09/18 05:17:54;;;;;;;;;16.50;14.50;;;;;;;;5067373;28;9460;-74
2021/09/18 05:20:22;;;;;;;;;17.25;16.25;;;;;;;;5065964;28;9580;-74
2021/09/18 05:22:49;;;;;;;;;16.50;16.00;;;;;;;;5066478;28;9708;-77
2021/09/18 05:25:18;;;;;;;;;15.00;13.25;;;;;;;;5066833;28;9452;-76
2021/09/18 05:27:45;;;;;;;;;12.00;12.00;;;;;;;;5045113;28;9521;-75
2021/09/18 05:30:13;;;;;;;;;6.25;6.25;;;;;;;;5065239;28;9623;-80
2021/09/18 05:32:40;;;;;;;;;17.25;17.25;;;;;;;;5064830;28;9552;-73
2021/09/18 05:35:08;;;;;;;;;16.50;16.50;;;;;;;;5064608;28;9636;-76
2021/09/18 05:37:36;;;;;;;;;20.50;17.50;;;;;;;;5064928;28;9718;-76
2021/09/18 05:40:03;;;;;;;;;16.00;16.00;;;;;;;;5066085;28;9717;-81
2021/09/18 05:42:32;;;;;;;;;17.75;15.25;;;;;;;;5066119;28;10455;-81
2021/09/18 05:45:01;;;;;;;;;22.00;16.50;;;;;;;;5064193;28;9479;-77
2021/09/18 05:47:28;;;;;;;;;19.00;19.00;;;;;;;;5066959;28;9392;-76
2021/09/18 05:49:55;;;;;;;;;22.50;19.00;;;;;;;;5065144;28;9394;-77
2021/09/18 05:52:23;;;;;;;;;22.33;17.33;;;;;;;;5066074;28;9524;-76
2021/09/18 05:54:50;;;;;;;;;15.00;15.00;;;;;;;;5064480;28;9375;-77
2021/09/18 05:57:17;;;;;;;;;16.67;16.67;;;;;;;;5065798;28;9388;-76
2021/09/18 05:59:46;;;;;;;;;13.00;13.00;;;;;;;;5063041;28;9261;-76
2021/09/18 06:02:13;;;;;;;;;17.67;17.67;;;;;;;;5062908;28;9313;-78
2021/09/18 06:04:40;;;;;;;;;16.67;16.67;;;;;;;;5066206;28;9208;-76
2021/09/18 06:07:08;;;;;;;;;20.00;20.00;;;;;;;;5047441;28;9117;-77
2021/09/18 06:09:35;;;;;;;;;21.00;21.00;;;;;;;;5066017;28;9084;-76
2021/09/18 06:12:02;;;;;;;;;18.67;18.67;;;;;;;;5064716;28;9257;-77
2021/09/18 06:14:30;;;;;;;;;20.00;20.00;;;;;;;;5063535;28;9254;-77
2021/09/18 06:16:58;;;;;;;;;19.00;17.33;;;;;;;;5064418;28;9192;-77
2021/09/18 06:19:25;;;;;;;;;17.67;17.33;;;;;;;;5044563;28;9423;-77
2021/09/18 06:21:53;;;;;;;;;19.00;19.00;;;;;;;;5064690;28;9361;-76
2021/09/18 06:24:21;;;;;;;;;20.33;16.33;;;;;;;;5062526;28;9266;-76
2021/09/18 06:26:48;;;;;;;;;17.67;17.67;;;;;;;;5062854;28;9145;-76
2021/09/18 06:29:15;;;;;;;;;19.67;18.00;;;;;;;;5062367;28;9080;-76
2021/09/18 06:31:43;;;;;;;;;20.33;18.67;;;;;;;;5045233;28;9115;-75
2021/09/18 06:34:11;;;;;;;;;14.00;14.00;;;;;;;;5064294;28;9167;-74
2021/09/18 06:36:39;;;;;;;;;15.00;14.33;;;;;;;;5062652;28;9007;-79
2021/09/18 06:39:06;;;;;;;;;14.00;14.00;;;;;;;;5062016;28;9049;-74
2021/09/18 06:41:33;;;;;;;;;20.67;19.67;;;;;;;;5063661;28;9820;-74
2021/09/18 06:44:00;;;;;;;;;17.00;16.25;;;;;;;;5064896;28;9918;-77
2021/09/18 06:46:28;;;;;;;;;19.00;17.33;;;;;;;;5062271;28;8856;-75
2021/09/18 06:48:55;;;;;;;;;14.75;14.75;;;;;;;;5064607;28;8927;-77
2021/09/18 06:51:24;;;;;;;;;16.75;16.75;;;;;;;;5045168;28;8929;-78
2021/09/18 06:53:51;;;;;;;;;17.00;14.50;;;;;;;;5046111;28;8984;-76
2021/09/18 06:56:18;;;;;;;;;13.25;13.25;;;;;;;;5061590;28;8968;-72
2021/09/18 06:58:46;;;;;;;;;13.25;13.25;;;;;;;;5059042;28;8870;-73
2021/09/18 07:01:13;;;;;;;;;16.75;16.75;;;;;;;;5060573;28;8851;-74
2021/09/18 07:03:41;;;;;;;;;16.75;15.00;;;;;;;;5044565;28;8846;-74
2021/09/18 07:06:09;;;;;;;;;16.75;16.75;;;;;;;;5061598;28;8903;-74
2021/09/18 07:08:38;;;;;;;;;14.75;13.75;;;;;;;;5062449;28;8888;-74
2021/09/18 07:11:05;;;;;;;;;15.75;15.75;;;;;;;;5043932;28;8868;-75
2021/09/18 07:13:33;;;;;;;;;15.75;15.75;;;;;;;;5062242;28;8850;-74
2021/09/18 07:16:00;;;;;;;;;22.50;22.50;;;;;;;;5062767;28;8880;-73
2021/09/18 07:18:28;;;;;;;;;28.25;25.00;;;;;;;;5062724;28;8877;-76
2021/09/18 07:20:55;;;;;;;;;22.50;21.50;;;;;;;;5062649;28;8880;-75
2021/09/18 07:23:24;;;;;;;;;14.50;13.50;;;;;;;;5064243;28;8834;-74
2021/09/18 07:25:53;;;;;;;;;23.00;19.50;;;;;;;;5060774;28;9595;-74
2021/09/18 07:28:20;;;;;;;;;18.50;18.50;;;;;;;;5063129;28;8924;-73
2021/09/18 07:30:48;;;;;;;;;16.50;16.50;;;;;;;;5058833;28;9427;-74
2021/09/18 07:33:15;;;;;;;;;20.75;20.50;;;;;;;;5064064;28;8866;-74
2021/09/18 07:35:42;;;;;;;;;20.75;20.75;;;;;;;;5062411;28;8875;-75
2021/09/18 07:38:11;;;;;;;;;21.50;21.50;;;;;;;;5063903;28;8878;-76
2021/09/18 07:40:39;;;;;;;;;19.50;18.25;;;;;;;;5062055;28;8909;-74
2021/09/18 07:43:08;;;;;;;;;18.25;17.00;;;;;;;;5044612;28;8849;-75
2021/09/18 07:45:35;;;;;;;;;15.75;15.00;;;;;;;;5062440;28;8862;-76
2021/09/18 07:48:02;;;;;;;;;15.50;15.50;;;;;;;;5062327;28;8845;-74
2021/09/18 07:50:29;;;;;;;;;16.75;14.00;;;;;;;;5062693;28;9239;-75
2021/09/18 07:52:57;;;;;;;;;19.00;17.00;;;;;;;;5063137;28;8854;-75
2021/09/18 07:55:26;;;;;;;;;19.50;18.50;;;;;;;;5061819;28;8862;-75
2021/09/18 07:57:54;;;;;;;;;21.00;19.50;;;;;;;;5064284;28;8830;-75
2021/09/18 08:00:23;;;;;;;;;20.25;18.00;;;;;;;;5061271;28;8858;-75
2021/09/18 08:02:52;;;;;;;;;23.25;22.75;;;;;;;;5062943;28;8875;-75
2021/09/18 08:05:19;;;;;;;;;21.25;21.25;;;;;;;;5062193;28;8916;-74
2021/09/18 08:07:46;;;;;;;;;16.50;16.50;;;;;;;;5064833;28;8850;-75
2021/09/18 08:10:14;;;;;;;;;20.50;17.00;;;;;;;;5058959;28;8854;-76
2021/09/18 08:12:44;;;;;;;;;19.50;19.50;;;;;;;;5054817;28;8852;-74
2021/09/18 08:15:12;;;;;;;;;16.50;16.50;;;;;;;;5058887;28;8869;-74
2021/09/18 08:17:41;;;;;;;;;15.25;15.25;;;;;;;;5060063;28;8862;-76
2021/09/18 08:20:10;;;;;;;;;14.75;14.75;;;;;;;;5063224;28;8885;-76
2021/09/18 08:22:37;;;;;;;;;15.00;15.00;;;;;;;;5063046;28;8972;-75
2021/09/18 08:25:05;;;;;;;;;15.00;15.00;;;;;;;;5052670;28;9666;-73
2021/09/18 08:27:32;;;;;;;;;13.75;13.75;;;;;;;;5062185;28;9028;-74
2021/09/18 08:30:00;;;;;;;;;14.75;11.75;;;;;;;;5026940;28;8929;-74
2021/09/18 08:32:27;;;;;;;;;12.75;12.50;;;;;;;;5042042;28;8812;-73
2021/09/18 08:34:56;;;;;;;;;17.50;15.50;;;;;;;;5041202;28;8860;-75
2021/09/18 08:37:23;;;;;;;;;9.75;9.75;;;;;;;;5041170;28;8844;-76
2021/09/18 08:39:50;;;;;;;;;11.25;11.25;;;;;;;;5041588;28;8895;-76
2021/09/18 08:42:18;;;;;;;;;12.75;10.75;;;;;;;;5042634;28;8852;-76
2021/09/18 08:44:45;;;;;;;;;7.50;7.50;;;;;;;;5025284;28;8896;-77
2021/09/18 08:47:13;;;;;;;;;11.25;11.25;;;;;;;;5032467;28;8863;-76
2021/09/18 08:49:40;;;;;;;;;11.25;11.00;;;;;;;;5025768;28;8854;-77
2021/09/18 08:52:09;;;;;;;;;15.25;15.25;;;;;;;;5041370;28;8887;-77
2021/09/18 08:54:40;;;;;;;;;15.25;15.25;;;;;;;;5041796;28;8929;-77
2021/09/18 08:57:07;;;;;;;;;14.75;14.25;;;;;;;;5041821;28;8840;-77
2021/09/18 08:59:37;;;;;;;;;15.75;14.00;;;;;;;;5043119;28;8888;-77
2021/09/18 09:02:13;;;;;;;;;12.75;12.75;;;;;;;;5038459;28;8816;-78
2021/09/18 09:04:40;;;;;;;;;11.75;11.75;;;;;;;;5043110;28;8891;-77
2021/09/18 09:07:12;;;;;;;;;10.75;10.75;;;;;;;;5041956;28;8871;-76
2021/09/18 09:09:59;;;;;;;;;10.75;10.75;;;;;;;;5039237;28;8852;-75
2021/09/18 09:12:30;;;;;;;;;10.20;10.20;;;;;;;;5043783;28;8860;-76
2021/09/18 09:14:58;;;;;;;;;11.25;10.00;;;;;;;;5028795;28;8912;-77
2021/09/18 09:17:28;;;;;;;;;14.25;12.50;;;;;;;;5041227;28;8889;-74
2021/09/18 09:19:55;;;;;;;;;13.60;13.00;;;;;;;;5042018;28;9010;-77
2021/09/18 09:22:38;;;;;;;;;11.00;11.00;;;;;;;;5042894;28;9707;-75
2021/09/18 09:25:06;;;;;;;;;10.60;10.60;;;;;;;;5037398;28;8852;-76
2021/09/18 09:27:35;;;;;;;;;11.00;9.60;;;;;;;;5040164;28;8840;-76
2021/09/18 09:30:02;;;;;;;;;11.00;11.00;;;;;;;;5039121;28;8891;-74
2021/09/18 09:32:32;;;;;;;;;8.80;8.80;;;;;;;;5026160;28;9612;-75
2021/09/18 09:35:00;;;;;;;;;10.40;10.40;;;;;;;;5043245;28;8876;-76
2021/09/18 09:37:28;;;;;;;;;11.00;11.00;;;;;;;;5023533;28;8868;-76
2021/09/18 09:40:00;;;;;;;;;12.00;12.00;;;;;;;;5042659;28;8859;-75
2021/09/18 09:42:28;;;;;;;;;9.80;9.80;;;;;;;;5035817;28;8852;-75
2021/09/18 09:44:56;;;;;;;;;9.20;9.20;;;;;;;;5042077;28;9638;-75
2021/09/18 09:47:24;;;;;;;;;7.20;7.20;;;;;;;;5039326;28;8979;-74
2021/09/18 09:49:52;;;;;;;;;6.60;6.60;;;;;;;;5024111;28;8856;-74
2021/09/18 09:52:24;;;;;;;;;8.00;8.00;;;;;;;;5046205;28;8864;-73
2021/09/18 09:54:54;;;;;;;;;6.00;6.00;;;;;;;;5035826;28;8840;-73
2021/09/18 09:57:23;;;;;;;;;9.20;9.20;;;;;;;;5031417;28;9654;-73
2021/09/18 09:59:58;;;;;;;;;8.20;8.20;;;;;;;;5035634;28;8824;-73
2021/09/18 10:02:25;;;;;;;;;9.80;8.40;;;;;;;;5043328;28;8878;-74
2021/09/18 10:04:53;;;;;;;;;8.80;8.80;;;;;;;;5045944;28;8843;-74
2021/09/18 10:07:21;;;;;;;;;8.00;8.00;;;;;;;;5027038;28;9014;-73
2021/09/18 10:09:49;;;;;;;;;7.40;7.40;;;;;;;;5041730;28;8910;-74
2021/09/18 10:12:16;;;;;;;;;10.40;10.40;;;;;;;;5036844;28;8886;-74
2021/09/18 10:14:48;;;;;;;;;6.80;6.80;;;;;;;;5043681;28;8884;-74
2021/09/18 10:17:16;;;;;;;;;8.60;7.40;;;;;;;;5046124;28;8858;-74
2021/09/18 10:20:03;;;;;;;;;7.80;7.80;;;;;;;;5044871;28;9012;-74
2021/09/18 10:25:18;;;;;;;;;7.40;7.40;;;;;;;;5043758;28;8852;-76
2021/09/18 10:28:09;;;;;;;;;9.60;8.20;;;;;;;;5044800;28;8863;-76
2021/09/18 10:30:46;;;;;;;;;4.80;4.40;;;;;;;;5023340;28;8918;-74
2021/09/18 10:33:32;;;;;;;;;8.80;8.80;;;;;;;;5045624;28;8895;-74
2021/09/18 10:36:02;;;;;;;;;7.20;5.40;;;;;;;;5044897;28;8878;-74
2021/09/18 10:38:31;;;;;;;;;9.00;7.20;;;;;;;;5042097;28;8935;-75
2021/09/18 10:41:01;;;;;;;;;6.00;6.00;;;;;;;;5035144;28;8856;-75
2021/09/18 10:43:31;;;;;;;;;6.60;5.00;;;;;;;;5033233;28;8848;-75
2021/09/18 10:46:00;;;;;;;;;5.40;5.40;;;;;;;;5041066;28;8874;-75
2021/09/18 10:48:39;;;;;;;;;5.80;5.80;;;;;;;;5034796;28;8868;-75
2021/09/18 10:51:08;;;;;;;;;7.40;7.00;;;;;;;;5039471;28;8911;-74
2021/09/18 10:54:07;;;;;;;;;5.80;5.80;;;;;;;;5038437;28;9627;-75
2021/09/18 10:57:11;;;;;;;;;6.80;6.80;;;;;;;;5022222;28;8834;-74
2021/09/18 10:59:50;;;;;;;;;7.60;6.20;;;;;;;;5033354;28;8858;-76
2021/09/18 11:02:43;;;;;;;;;5.40;5.40;;;;;;;;5030772;28;8847;-77
2021/09/18 11:05:13;;;;;;;;;7.60;5.80;;;;;;;;5036326;28;8862;-75
2021/09/18 11:07:45;;;;;;;;;5.20;5.20;;;;;;;;5030867;28;9632;-76
2021/09/18 11:10:14;;;;;;;;;7.80;6.20;;;;;;;;5041252;28;8871;-74
2021/09/18 11:12:43;;;;;;;;;6.20;6.20;;;;;;;;5041274;28;8867;-74
2021/09/18 11:15:13;;;;;;;;;5.00;5.00;;;;;;;;5042750;28;8876;-75
2021/09/18 11:17:45;;;;;;;;;6.00;6.00;;;;;;;;5037570;28;8854;-75
2021/09/18 11:20:13;;;;;;;;;5.80;5.80;;;;;;;;5041762;28;8871;-77
2021/09/18 11:22:41;;;;;;;;;6.40;6.40;;;;;;;;5034047;28;8842;-75
2021/09/18 11:25:30;;;;;;;;;4.60;4.60;;;;;;;;5036900;28;8851;-74
2021/09/18 11:28:08;;;;;;;;;5.20;5.20;;;;;;;;5030186;28;8885;-76
2021/09/18 11:30:43;;;;;;;;;6.80;6.80;;;;;;;;5041352;28;8922;-75
2021/09/18 11:33:13;;;;;;;;;6.80;6.80;;;;;;;;5044667;28;8870;-74
2021/09/18 11:35:41;;;;;;;;;6.00;6.00;;;;;;;;5043203;28;8873;-74
2021/09/18 11:38:09;;;;;;;;;5.80;5.80;;;;;;;;5042918;28;9704;-74
2021/09/18 11:40:38;;;;;;;;;4.20;4.20;;;;;;;;5038115;28;8875;-75
2021/09/18 11:43:05;;;;;;;;;7.00;7.00;;;;;;;;5042260;28;8864;-76
2021/09/18 11:45:39;;;;;;;;;6.40;6.00;;;;;;;;5036414;28;8889;-76
2021/09/18 11:48:09;;;;;;;;;6.60;5.60;;;;;;;;5024330;28;8917;-74
2021/09/18 11:50:39;;;;;;;;;6.00;5.20;;;;;;;;5043390;28;8884;-74
2021/09/18 11:53:08;;;;;;;;;6.00;6.00;;;;;;;;5043547;28;8891;-74
2021/09/18 11:55:38;;;;;;;;;4.80;4.80;;;;;;;;5042919;28;8864;-74
2021/09/18 11:58:09;;;;;;;;;3.20;3.20;;;;;;;;5027195;28;8974;-74
2021/09/18 12:00:38;;;;;;;;;4.20;4.20;;;;;;;;5041462;28;8812;-74
2021/09/18 12:03:06;;;;;;;;;5.20;5.00;;;;;;;;5044685;28;8864;-75
2021/09/18 12:05:33;;;;;;;;;5.00;5.00;;;;;;;;5031229;28;8876;-74
2021/09/18 12:08:03;;;;;;;;;4.20;4.20;;;;;;;;5044777;28;8896;-74
2021/09/18 12:10:31;;;;;;;;;4.00;4.00;;;;;;;;5043856;28;9698;-74
2021/09/18 12:13:00;;;;;;;;;4.00;4.00;;;;;;;;5043722;28;8886;-75
2021/09/18 12:15:35;;;;;;;;;5.60;5.60;;;;;;;;5041532;28;8852;-75
2021/09/18 12:18:03;;;;;;;;;4.40;3.40;;;;;;;;5043404;28;8880;-74
2021/09/18 12:20:32;;;;;;;;;4.20;4.20;;;;;;;;5044054;28;8878;-75
2021/09/18 12:22:59;;;;;;;;;2.60;2.60;;;;;;;;5043510;28;9006;-74
2021/09/18 12:25:30;;;;;;;;;4.20;4.20;;;;;;;;5043962;28;8962;-74
2021/09/18 12:28:00;;;;;;;;;4.00;4.00;;;;;;;;5039715;28;8864;-75
2021/09/18 12:30:38;;;;;;;;;4.60;4.60;;;;;;;;5042663;28;8804;-74
2021/09/18 12:33:07;;;;;;;;;4.00;4.00;;;;;;;;5044225;28;8888;-74
2021/09/18 12:35:40;;;;;;;;;3.80;3.80;;;;;;;;5042592;28;8875;-74
2021/09/18 12:38:07;;;;;;;;;5.60;3.80;;;;;;;;5043898;28;8852;-75
2021/09/18 12:40:42;;;;;;;;;3.20;3.20;;;;;;;;5042771;28;8875;-75
2021/09/18 12:43:11;;;;;;;;;4.20;4.20;;;;;;;;5040411;28;8940;-75
2021/09/18 12:45:39;;;;;;;;;4.00;4.00;;;;;;;;5043311;28;8882;-74
2021/09/18 12:48:18;;;;;;;;;3.40;3.40;;;;;;;;5042760;28;8878;-74
2021/09/18 12:50:55;;;;;;;;;4.00;4.00;;;;;;;;5042321;28;8880;-74
2021/09/18 12:53:24;;;;;;;;;2.40;2.00;;;;;;;;5034606;28;8866;-74
2021/09/18 12:56:19;;;;;;;;;4.60;4.60;;;;;;;;5029419;28;8971;-74
2021/09/18 12:58:49;;;;;;;;;5.00;3.40;;;;;;;;5043859;28;8860;-74
2021/09/18 13:01:17;;;;;;;;;4.00;4.00;;;;;;;;5035309;28;8944;-74
2021/09/18 13:03:45;;;;;;;;;2.00;2.00;;;;;;;;5040975;28;8882;-74
2021/09/18 13:06:14;;;;;;;;;4.60;4.60;;;;;;;;5038779;28;8839;-74
2021/09/18 13:08:47;;;;;;;;;4.00;4.00;;;;;;;;5038928;28;9590;-75
2021/09/18 13:11:19;;;;;;;;;2.00;2.00;;;;;;;;5033800;28;8876;-72
2021/09/18 13:13:46;;;;;;;;;4.80;4.80;;;;;;;;5032423;28;8896;-73
2021/09/18 13:16:15;;;;;;;;;5.20;5.20;;;;;;;;5038566;28;8906;-73
2021/09/18 13:18:43;;;;;;;;;5.60;5.60;;;;;;;;5037073;28;8854;-76
2021/09/18 13:21:11;;;;;;;;;3.40;3.40;;;;;;;;5000075;28;9528;-75
2021/09/18 13:23:38;;;;;;;;;4.40;4.40;;;;;;;;5024423;28;8945;-76
2021/09/18 13:26:06;;;;;;;;;5.20;5.20;;;;;;;;5042735;28;8848;-74
2021/09/18 13:28:35;;;;;;;;;5.80;4.00;;;;;;;;5026870;28;8863;-76
2021/09/18 13:31:02;;;;;;;;;3.40;3.40;;;;;;;;5042946;28;8824;-75
2021/09/18 13:33:30;;;;;;;;;4.00;4.00;;;;;;;;5043801;28;8933;-75
2021/09/18 13:35:57;;;;;;;;;4.00;4.00;;;;;;;;5023178;28;8856;-74
2021/09/18 13:38:25;;;;;;;;;5.00;5.00;;;;;;;;5025461;28;8875;-74
2021/09/18 13:40:52;;;;;;;;;8.00;5.00;;;;;;;;5043374;28;8860;-76
2021/09/18 13:43:19;;;;;;;;;3.40;3.40;;;;;;;;5038994;28;8848;-78
2021/09/18 13:45:48;;;;;;;;;3.00;3.00;;;;;;;;5043708;28;8864;-77
2021/09/18 13:48:16;;;;;;;;;2.00;2.00;;;;;;;;5043624;28;8887;-78
2021/09/18 13:50:43;;;;;;;;;4.60;4.60;;;;;;;;5044457;28;8870;-77
2021/09/18 13:53:11;;;;;;;;;4.40;4.00;;;;;;;;5043926;28;8856;-77
2021/09/18 13:55:38;;;;;;;;;4.00;4.00;;;;;;;;5042562;28;8874;-76
2021/09/18 13:58:06;;;;;;;;;3.80;3.80;;;;;;;;5016468;28;8852;-75
2021/09/18 14:00:33;;;;;;;;;3.80;3.80;;;;;;;;5030225;28;9583;-77
2021/09/18 14:03:04;;;;;;;;;4.00;4.00;;;;;;;;5042026;28;8868;-77
2021/09/18 14:05:31;;;;;;;;;4.00;4.00;;;;;;;;5038481;28;9608;-75
2021/09/18 14:07:58;;;;;;;;;4.20;4.20;;;;;;;;5039381;28;8852;-78
2021/09/18 14:10:26;;;;;;;;;2.80;2.80;;;;;;;;5038203;28;8872;-77
2021/09/18 14:12:53;;;;;;;;;3.20;3.20;;;;;;;;5027582;28;8854;-80
2021/09/18 14:15:21;;;;;;;;;2.00;2.00;;;;;;;;5042900;28;10058;-77
2021/09/18 14:17:48;;;;;;;;;3.40;3.40;;;;;;;;5023378;28;8897;-78
2021/09/18 14:20:17;;;;;;;;;3.00;3.00;;;;;;;;5033553;28;8903;-80
2021/09/18 14:22:46;;;;;;;;;4.00;3.00;;;;;;;;5042026;28;8848;-78
2021/09/18 14:25:14;;;;;;;;;5.00;3.00;;;;;;;;5044828;28;8860;-78
2021/09/18 14:27:41;;;;;;;;;2.80;2.80;;;;;;;;5046640;28;8880;-78
2021/09/18 14:30:10;;;;;;;;;4.20;3.40;;;;;;;;5042966;28;8974;-78
2021/09/18 14:32:37;;;;;;;;;3.20;3.20;;;;;;;;5043201;28;8871;-78
2021/09/18 14:35:06;;;;;;;;;3.80;3.80;;;;;;;;5045317;28;8840;-78
2021/09/18 14:37:34;;;;;;;;;4.00;3.00;;;;;;;;5009277;28;8868;-78
2021/09/18 14:40:02;;;;;;;;;5.00;3.80;;;;;;;;5043957;28;8864;-77
2021/09/18 14:42:29;;;;;;;;;4.00;4.00;;;;;;;;5044299;28;8971;-76
2021/09/18 14:44:56;;;;;;;;;3.00;3.00;;;;;;;;5044873;28;8840;-80
2021/09/18 14:47:24;;;;;;;;;3.60;3.60;;;;;;;;5039867;28;8877;-78
2021/09/18 14:49:51;;;;;;;;;3.80;3.80;;;;;;;;5020142;28;8852;-78
2021/09/18 14:52:19;;;;;;;;;3.00;3.00;;;;;;;;5037787;28;8862;-78